Halliburton Field


Codes: KDUC/DUC
Name: Halliburton Field
City: Duncan
Country: United States
Elevation: 1114 ft.
Wikipedia:

Photos at Halliburton Field


   Photos courtesy of SpottingLog. You can add your own sightings and photos by signing up for a free trial today.



No photos found.

Weather at Halliburton Field


Time (UTC)DescriptionTempratureWindCloud coverageVisibilityPressureHumidity
19-Apr-2024 03:00Overcast Clouds14°C18 mph, NE100%10000m1020hPa67%
19-Apr-2024 06:00Broken Clouds13°C18 mph, NE71%10000m1020hPa69%
19-Apr-2024 09:00Overcast Clouds11°C18 mph, NE91%10000m1021hPa66%
19-Apr-2024 12:00Overcast Clouds9°C16 mph, NE92%10000m1023hPa63%
19-Apr-2024 15:00Overcast Clouds12°C20 mph, NE88%10000m1023hPa54%
19-Apr-2024 18:00Overcast Clouds16°C16 mph, NE94%10000m1022hPa44%
19-Apr-2024 21:00Broken Clouds18°C13 mph, NE74%10000m1020hPa42%
20-Apr-2024 00:00Overcast Clouds16°C11 mph, NE87%10000m1019hPa53%
20-Apr-2024 03:00Light Rain13°C11 mph, NE100%10000m1021hPa63%
20-Apr-2024 06:00Light Rain11°C16 mph, NE100%10000m1021hPa67%
20-Apr-2024 09:00Light Rain10°C13 mph, NE100%10000m1022hPa75%
20-Apr-2024 12:00Light Rain9°C13 mph, NE100%10000m1024hPa84%
20-Apr-2024 15:00Light Rain9°C13 mph, NE100%10000m1024hPa90%
20-Apr-2024 18:00Overcast Clouds10°C13 mph, NE100%10000m1024hPa90%
20-Apr-2024 21:00Light Rain11°C16 mph, NE100%10000m1023hPa88%
21-Apr-2024 00:00Moderate Rain10°C13 mph, NE100%5724m1023hPa96%
21-Apr-2024 03:00Moderate Rain8°C13 mph, NE100%10000m1025hPa90%
21-Apr-2024 06:00Light Rain8°C11 mph, NE100%10000m1026hPa89%
21-Apr-2024 09:00Light Rain8°C11 mph, NE100%10000m1025hPa91%
21-Apr-2024 12:00Overcast Clouds8°C11 mph, NE100%10000m1026hPa92%
21-Apr-2024 15:00Overcast Clouds9°C9 mph, NE100%10000m1027hPa85%
21-Apr-2024 18:00Overcast Clouds11°C9 mph, NE100%10000m1026hPa66%
21-Apr-2024 21:00Overcast Clouds13°C7 mph, NE100%10000m1024hPa60%
22-Apr-2024 00:00Broken Clouds13°C7 mph, E81%10000m1022hPa64%
22-Apr-2024 03:00Clear Sky8°C7 mph, NE2%10000m1023hPa76%
22-Apr-2024 06:00Clear Sky7°C4 mph, SE1%10000m1023hPa79%
22-Apr-2024 09:00Clear Sky7°C4 mph, SE9%10000m1021hPa87%
22-Apr-2024 12:00Few Clouds7°C7 mph, S17%10000m1020hPa93%
22-Apr-2024 15:00Overcast Clouds13°C13 mph, S100%10000m1019hPa74%
22-Apr-2024 18:00Broken Clouds19°C18 mph, S80%10000m1016hPa61%
22-Apr-2024 21:00Scattered Clouds21°C18 mph, S40%10000m1012hPa56%
23-Apr-2024 00:00Few Clouds20°C16 mph, S24%10000m1010hPa67%
23-Apr-2024 03:00Clear Sky16°C18 mph, S4%10000m1011hPa78%
23-Apr-2024 06:00Clear Sky15°C18 mph, S4%10000m1010hPa85%
23-Apr-2024 09:00Clear Sky14°C11 mph, S5%10000m1010hPa92%
23-Apr-2024 12:00Light Rain14°C11 mph, S25%10000m1011hPa95%
23-Apr-2024 15:00Light Rain19°C11 mph, SW70%10000m1012hPa79%
23-Apr-2024 18:00Light Rain22°C7 mph, W70%10000m1013hPa66%
23-Apr-2024 21:00Overcast Clouds22°C16 mph, NE100%10000m1014hPa69%
24-Apr-2024 00:00Overcast Clouds18°C16 mph, NE100%10000m1016hPa80%